Time;durP1;ratioP1;P1;durP2;ratioP2;P2;SDS_P1;SDS_P2;PMS_P1;PMS_P2;Temp;Humidity;BMP_temperature;BMP_pressure;BME280_temperature;BME280_humidity;BME280_pressure;Samples;Min_cycle;Max_cycle;Signal;HPM_P1;HPM_P2
2024/02/12 00:01:58;;;;;;;17.92;4.78;;;;;;;15.24;100.00;97876.16;5059645;28;20033;-73
2024/02/12 00:04:28;;;;;;;21.58;4.88;;;;;;;14.67;100.00;97808.28;5058347;28;20024;-72
2024/02/12 00:06:57;;;;;;;21.27;4.07;;;;;;;15.23;100.00;97943.69;5062853;28;20040;-72
2024/02/12 00:09:24;;;;;;;17.00;4.28;;;;;;;15.00;100.00;97921.63;5061836;28;20028;-73
2024/02/12 00:11:50;;;;;;;17.35;4.10;;;;;;;14.78;100.00;97868.78;5055460;28;20056;-74
2024/02/12 00:14:16;;;;;;;19.13;4.50;;;;;;;14.24;100.00;97796.38;5058560;28;20112;-73
2024/02/12 00:16:42;;;;;;;17.10;3.67;;;;;;;15.07;100.00;97928.72;5057802;28;20033;-73
2024/02/12 00:19:11;;;;;;;22.55;4.75;;;;;;;14.70;100.00;97863.47;5058787;28;20029;-73
2024/02/12 00:21:36;;;;;;;19.33;3.97;;;;;;;14.72;100.00;97877.75;5057738;28;20052;-73
2024/02/12 00:24:02;;;;;;;22.13;3.97;;;;;;;15.30;100.00;97978.06;5057186;28;20549;-73
2024/02/12 00:26:28;;;;;;;20.65;4.10;;;;;;;14.78;100.00;97873.91;5062379;28;20119;-72
2024/02/12 00:28:56;;;;;;;19.30;4.10;;;;;;;14.76;100.00;97839.97;5059635;28;20116;-74
2024/02/12 00:31:22;;;;;;;17.70;3.75;;;;;;;15.34;100.00;97930.81;5056564;28;20032;-74
2024/02/12 00:33:48;;;;;;;20.10;4.32;;;;;;;15.37;100.00;97931.38;5061286;28;22753;-72
2024/02/12 00:36:18;;;;;;;16.23;3.83;;;;;;;14.87;100.00;97880.03;5059356;28;20032;-73
2024/02/12 00:38:44;;;;;;;18.77;3.80;;;;;;;15.03;100.00;97886.41;5058124;28;20036;-74
2024/02/12 00:41:12;;;;;;;20.70;4.05;;;;;;;14.78;100.00;97840.66;5065893;28;20446;-71
2024/02/12 00:43:40;;;;;;;15.30;3.35;;;;;;;15.27;100.00;97929.69;5058889;28;20121;-72
2024/02/12 00:46:07;;;;;;;13.60;4.07;;;;;;;14.59;100.00;97813.19;5055576;28;20448;-72
2024/02/12 00:48:32;;;;;;;20.23;4.45;;;;;;;14.84;100.00;97850.41;5059366;28;20395;-72
2024/02/12 00:50:57;;;;;;;16.13;4.05;;;;;;;15.10;100.00;97899.50;5063679;28;20033;-73
2024/02/12 00:53:24;;;;;;;12.13;3.28;;;;;;;15.16;100.00;97889.59;5065456;28;20043;-72
2024/02/12 00:55:49;;;;;;;13.95;3.78;;;;;;;15.06;100.00;97872.53;5055743;28;20582;-72
2024/02/12 00:58:14;;;;;;;21.25;4.45;;;;;;;14.96;100.00;97835.81;5063151;28;20049;-73
2024/02/12 01:00:40;;;;;;;16.17;4.55;;;;;;;15.04;100.00;97862.41;5063454;28;20029;-72
2024/02/12 01:03:05;;;;;;;14.77;3.65;;;;;;;15.00;100.00;97738.22;5055235;28;20054;-73
2024/02/12 01:05:31;;;;;;;19.58;3.50;;;;;;;15.21;100.00;97882.34;5057638;28;20039;-73
2024/02/12 01:07:56;;;;;;;17.13;3.58;;;;;;;15.30;100.00;97901.28;5060577;28;20025;-73
2024/02/12 01:10:22;;;;;;;15.98;3.53;;;;;;;15.28;100.00;97880.94;5054576;28;20036;-72
2024/02/12 01:12:47;;;;;;;19.33;4.13;;;;;;;14.99;100.00;97849.19;5058016;28;20033;-73
2024/02/12 01:15:15;;;;;;;16.10;3.75;;;;;;;15.14;100.00;97882.97;5061412;28;20041;-70
2024/02/12 01:17:41;;;;;;;15.13;3.35;;;;;;;15.50;100.00;97947.44;5055784;28;20563;-71
2024/02/12 01:20:14;;;;;;;13.18;2.90;;;;;;;15.37;100.00;97928.03;5058621;28;20083;-72
2024/02/12 01:22:39;;;;;;;9.68;2.97;;;;;;;15.46;100.00;97919.63;5056415;28;20036;-72
2024/02/12 01:25:05;;;;;;;16.05;2.90;;;;;;;14.70;100.00;97837.88;5058091;28;20021;-72
2024/02/12 01:27:31;;;;;;;15.55;3.35;;;;;;;15.24;100.00;97938.44;5060654;28;20720;-71
2024/02/12 01:29:56;;;;;;;15.23;3.05;;;;;;;14.90;100.00;97888.28;5060652;28;20029;-72
2024/02/12 01:32:23;;;;;;;10.10;2.60;;;;;;;15.30;100.00;97945.63;5057734;28;20111;-72
2024/02/12 01:34:49;;;;;;;11.13;2.28;;;;;;;15.47;100.00;97968.16;5059874;28;20093;-73
2024/02/12 01:37:15;;;;;;;15.50;2.90;;;;;;;15.54;100.00;97974.41;5062863;28;20028;-73
2024/02/12 01:39:41;;;;;;;12.50;3.05;;;;;;;15.21;100.00;97960.91;5058619;28;20033;-73
2024/02/12 01:42:12;;;;;;;14.43;3.03;;;;;;;14.44;100.00;97804.13;5064306;28;20085;-73
2024/02/12 01:44:53;;;;;;;16.27;2.85;;;;;;;14.61;100.00;97769.56;5061036;28;20116;-72
2024/02/12 01:47:19;;;;;;;22.57;4.00;;;;;;;14.34;100.00;97500.84;5063825;28;20108;-71
2024/02/12 01:49:45;;;;;;;19.63;3.25;;;;;;;14.17;100.00;97291.88;5055364;28;20363;-70
2024/02/12 01:52:13;;;;;;;17.52;3.72;;;;;;;13.17;100.00;96980.72;5054520;28;20067;-71
2024/02/12 01:54:38;;;;;;;14.77;3.35;;;;;;;13.83;100.00;96888.75;5061479;28;20040;-71
2024/02/12 01:57:05;;;;;;;16.55;3.72;;;;;;;14.03;100.00;96792.44;5066408;28;20111;-73
2024/02/12 01:59:31;;;;;;;16.08;3.40;;;;;;;13.47;100.00;96629.25;5064251;28;20055;-71
2024/02/12 02:01:56;;;;;;;16.52;4.00;;;;;;;14.34;100.00;96764.88;5063545;28;20024;-71
2024/02/12 02:04:24;;;;;;;15.02;3.90;;;;;;;13.94;100.00;96663.84;5056549;28;20053;-71
2024/02/12 02:06:53;;;;;;;13.63;3.33;;;;;;;14.02;100.00;96629.97;5055760;28;20058;-74
2024/02/12 02:09:19;;;;;;;14.48;3.28;;;;;;;13.98;100.00;96686.56;5059800;28;20060;-73
2024/02/12 02:11:44;;;;;;;17.52;3.60;;;;;;;13.80;100.00;96676.34;5064916;28;20024;-71
2024/02/12 02:14:11;;;;;;;10.23;2.83;;;;;;;14.46;100.00;96781.59;5061836;28;20392;-71
2024/02/12 02:16:38;;;;;;;22.05;3.83;;;;;;;14.22;100.00;96750.66;5057692;28;20407;-71
2024/02/12 02:19:04;;;;;;;12.73;2.83;;;;;;;13.80;100.00;96723.09;5062223;28;20052;-71
2024/02/12 02:21:30;;;;;;;12.75;3.45;;;;;;;14.31;100.00;96799.16;5056509;28;20487;-71
2024/02/12 02:23:59;;;;;;;15.18;2.92;;;;;;;14.42;100.00;96798.16;5060223;28;20028;-70
2024/02/12 02:26:27;;;;;;;15.07;3.10;;;;;;;14.17;100.00;96725.53;5058167;28;20033;-70
2024/02/12 02:28:52;;;;;;;15.77;2.72;;;;;;;14.51;100.00;96838.19;5060627;28;20083;-71
2024/02/12 02:31:18;;;;;;;11.55;2.38;;;;;;;14.22;100.00;96837.53;5062821;28;20033;-71
2024/02/12 02:33:43;;;;;;;11.82;2.25;;;;;;;14.02;100.00;96792.59;5058738;28;20036;-71
2024/02/12 02:36:09;;;;;;;11.63;2.70;;;;;;;14.28;100.00;96839.53;5062139;28;20066;-70
2024/02/12 02:38:34;;;;;;;13.63;2.38;;;;;;;14.47;100.00;96827.44;5057158;28;20423;-70
2024/02/12 02:41:00;;;;;;;17.45;3.00;;;;;;;14.51;100.00;96836.44;5056030;28;20041;-71
2024/02/12 02:43:26;;;;;;;20.27;3.13;;;;;;;13.64;100.00;96785.91;5058821;28;20036;-71
2024/02/12 02:45:52;;;;;;;24.35;3.38;;;;;;;14.22;100.00;96880.97;5061490;28;20103;-71
2024/02/12 02:48:19;;;;;;;23.33;3.90;;;;;;;14.69;100.00;97028.19;5054370;28;20047;-71
2024/02/12 02:50:45;;;;;;;20.27;3.33;;;;;;;14.33;100.00;96965.91;5050257;28;20031;-71
2024/02/12 02:53:11;;;;;;;24.02;3.60;;;;;;;14.67;100.00;97117.03;5058883;28;20477;-71
2024/02/12 02:55:37;;;;;;;23.75;3.88;;;;;;;14.37;100.00;97124.88;5058672;28;20036;-71
2024/02/12 02:58:02;;;;;;;18.95;3.72;;;;;;;14.65;100.00;97089.03;5053456;28;20071;-71
2024/02/12 03:00:30;;;;;;;16.15;3.30;;;;;;;14.19;100.00;97080.50;5057597;28;20086;-71
2024/02/12 03:02:56;;;;;;;16.90;3.25;;;;;;;14.29;100.00;97147.75;5057267;28;20063;-71
2024/02/12 03:05:21;;;;;;;12.63;2.47;;;;;;;14.30;100.00;97141.72;5053963;28;20037;-73
2024/02/12 03:07:49;;;;;;;15.43;2.90;;;;;;;13.57;100.00;96986.47;5058355;28;20051;-71
2024/02/12 03:10:15;;;;;;;13.48;3.30;;;;;;;14.01;100.00;97039.50;5056916;28;20025;-69
2024/02/12 03:12:43;;;;;;;11.45;3.10;;;;;;;13.96;100.00;96895.31;5057807;28;20033;-70
2024/02/12 03:15:11;;;;;;;14.15;3.25;;;;;;;14.02;100.00;96803.63;5054596;28;20067;-71
2024/02/12 03:17:44;;;;;;;9.82;3.00;;;;;;;14.01;100.00;96714.34;5058202;28;20483;-70
2024/02/12 03:20:11;;;;;;;13.63;3.15;;;;;;;13.98;100.00;96612.50;5053380;28;20543;-70
2024/02/12 03:22:41;;;;;;;11.55;3.28;;;;;;;13.38;100.00;96430.31;5058627;28;20040;-71
2024/02/12 03:25:08;;;;;;;10.57;3.30;;;;;;;13.51;100.00;96377.97;5055325;28;20037;-72
2024/02/12 03:27:35;;;;;;;14.65;3.72;;;;;;;13.68;100.00;96350.78;5055749;28;20050;-71
2024/02/12 03:30:02;;;;;;;10.65;3.22;;;;;;;13.88;100.00;96319.75;5059394;28;20173;-71
2024/02/12 03:32:28;;;;;;;11.02;3.55;;;;;;;13.84;100.00;96279.41;5057518;28;20083;-70
2024/02/12 03:34:53;;;;;;;15.05;3.50;;;;;;;13.54;100.00;96206.72;5056696;28;20033;-72
2024/02/12 03:37:19;;;;;;;12.13;2.97;;;;;;;13.73;100.00;96175.81;5057045;28;20033;-70
2024/02/12 03:39:47;;;;;;;13.05;3.30;;;;;;;13.64;100.00;96120.63;5056879;28;20028;-70
2024/02/12 03:42:12;;;;;;;15.48;3.30;;;;;;;13.62;100.00;96119.97;5055532;28;20033;-71
2024/02/12 03:44:40;;;;;;;12.27;3.22;;;;;;;12.92;100.00;95978.44;5059016;28;20246;-70
2024/02/12 03:47:05;;;;;;;15.98;3.40;;;;;;;13.84;100.00;96101.47;5054472;28;20555;-70
2024/02/12 04:00:41;;;;;;;13.50;3.03;;;;;;;13.88;100.00;96074.69;5062641;28;20048;-71
2024/02/12 04:03:08;;;;;;;14.18;3.15;;;;;;;13.29;100.00;96038.44;5060451;28;20025;-71
2024/02/12 04:05:34;;;;;;;12.35;2.95;;;;;;;13.60;100.00;96088.72;5060501;28;21554;-71
2024/02/12 04:08:00;;;;;;;14.98;3.20;;;;;;;13.47;100.00;96088.38;5065260;28;20116;-70
2024/02/12 04:10:25;;;;;;;12.13;2.70;;;;;;;13.98;100.00;96189.44;5059452;28;20028;-71
2024/02/12 04:12:51;;;;;;;12.32;2.67;;;;;;;13.93;100.00;96228.19;5068393;28;20024;-73
2024/02/12 04:15:16;;;;;;;13.70;3.03;;;;;;;13.38;100.00;96145.44;5061948;28;20041;-70
2024/02/12 04:17:42;;;;;;;20.35;3.65;;;;;;;13.94;100.00;96252.00;5063770;28;20025;-71
2024/02/12 04:20:10;;;;;;;11.63;3.58;;;;;;;13.85;100.00;96260.56;5060408;28;20086;-71
2024/02/12 04:22:36;;;;;;;15.60;3.25;;;;;;;13.88;100.00;96240.63;5059336;28;20035;-71
2024/02/12 04:25:04;;;;;;;16.52;4.13;;;;;;;13.44;100.00;96200.13;5057885;28;20078;-71
2024/02/12 04:27:31;;;;;;;14.65;3.50;;;;;;;13.39;100.00;96220.22;5055952;28;20028;-76
2024/02/12 04:29:57;;;;;;;14.77;3.10;;;;;;;13.78;100.00;96346.38;5058661;28;20500;-72
2024/02/12 04:32:22;;;;;;;13.90;3.67;;;;;;;13.67;100.00;96285.38;5062369;28;20029;-72
2024/02/12 04:34:48;;;;;;;9.35;2.72;;;;;;;13.70;100.00;96338.69;5057972;28;20486;-73
2024/02/12 04:37:13;;;;;;;9.70;2.42;;;;;;;13.27;100.00;96280.09;5060741;28;20122;-75
2024/02/12 04:39:39;;;;;;;11.45;2.78;;;;;;;13.24;100.00;96290.56;5051569;28;20117;-72
2024/02/12 04:42:05;;;;;;;12.93;2.75;;;;;;;13.48;100.00;96357.06;5049383;28;20033;-73
2024/02/12 04:44:31;;;;;;;10.10;2.47;;;;;;;13.64;100.00;96392.88;5053644;28;20040;-73
2024/02/12 04:46:58;;;;;;;12.60;2.88;;;;;;;13.84;100.00;96430.78;5055593;28;20025;-73
2024/02/12 04:49:25;;;;;;;11.13;2.40;;;;;;;13.77;100.00;96477.50;5064745;28;20088;-71
2024/02/12 04:51:51;;;;;;;15.18;3.03;;;;;;;13.71;100.00;96450.00;5063335;28;20052;-71
2024/02/12 04:54:16;;;;;;;13.80;2.92;;;;;;;13.75;100.00;96538.09;5054230;28;20410;-71
2024/02/12 04:56:42;;;;;;;14.93;3.45;;;;;;;13.72;100.00;96525.66;5052774;28;20033;-71
2024/02/12 04:59:14;;;;;;;15.60;3.70;;;;;;;12.70;100.00;96352.75;5053239;28;20048;-71
2024/02/12 05:01:39;;;;;;;12.80;3.58;;;;;;;13.34;100.00;96513.19;5052037;28;20056;-70
2024/02/12 05:04:05;;;;;;;20.25;4.97;;;;;;;13.09;100.00;96504.53;5051580;28;20124;-70
2024/02/12 05:06:33;;;;;;;27.10;10.13;;;;;;;13.22;100.00;96519.44;5054496;28;20089;-70
2024/02/12 05:09:01;;;;;;;25.60;10.15;;;;;;;12.77;100.00;96354.59;5052439;28;20079;-70
2024/02/12 05:11:28;;;;;;;28.48;11.60;;;;;;;13.12;100.00;96290.03;5055308;28;20033;-69
2024/02/12 05:13:54;;;;;;;24.42;8.35;;;;;;;11.97;100.00;96063.59;5052125;28;20028;-68
2024/02/12 05:16:29;;;;;;;18.23;5.55;;;;;;;12.95;100.00;96160.84;5050251;28;20118;-70
2024/02/12 05:24:24;;;;;;;26.52;5.75;;;;;;;12.50;100.00;95989.59;5053549;28;20051;-70
2024/02/12 05:26:50;;;;;;;21.63;5.82;;;;;;;12.50;100.00;95913.97;5052218;28;20036;-73
2024/02/12 05:29:17;;;;;;;19.83;4.95;;;;;;;12.94;100.00;95956.13;5050098;28;20029;-71
2024/02/12 05:31:44;;;;;;;25.40;5.78;;;;;;;12.89;100.00;95920.09;5054563;28;20056;-71
2024/02/12 05:34:10;;;;;;;20.58;7.10;;;;;;;11.88;100.00;95665.84;5050713;28;20033;-69
2024/02/12 05:36:35;;;;;;;19.83;6.28;;;;;;;12.39;100.00;95651.19;5052619;28;20032;-69
2024/02/12 05:39:00;;;;;;;20.73;5.30;;;;;;;12.91;100.00;95556.28;5052371;28;20116;-69
2024/02/12 05:41:26;;;;;;;15.80;5.03;;;;;;;12.33;100.00;95402.31;5057723;28;20031;-70
2024/02/12 05:43:52;;;;;;;19.45;5.10;;;;;;;12.74;100.00;95429.97;5056183;28;20045;-69
2024/02/12 05:46:18;;;;;;;16.10;4.47;;;;;;;12.50;100.00;95480.25;5057701;28;20029;-69
2024/02/12 05:48:43;;;;;;;13.15;4.20;;;;;;;12.62;100.00;95716.59;5058697;28;20040;-71
2024/02/12 05:51:10;;;;;;;21.70;4.85;;;;;;;13.01;100.00;95946.88;5055273;28;20090;-72
2024/02/12 05:53:36;;;;;;;16.88;4.97;;;;;;;13.22;100.00;95964.31;5042826;28;20498;-70
2024/02/12 05:56:01;;;;;;;15.77;4.38;;;;;;;13.28;100.00;95976.44;5059128;28;20036;-70
2024/02/12 05:58:27;;;;;;;19.83;4.68;;;;;;;13.32;100.00;96124.84;5060043;28;20056;-70
2024/02/12 06:00:56;;;;;;;21.30;5.15;;;;;;;13.31;100.00;96491.31;5059178;28;20056;-71
2024/02/12 06:03:22;;;;;;;20.40;6.30;;;;;;;12.85;100.00;98505.63;5062403;28;20063;-71
2024/02/12 06:05:48;;;;;;;17.08;6.55;;;;;;;12.78;100.00;98930.22;5059924;28;20052;-70
2024/02/12 06:08:14;;;;;;;22.63;6.80;;;;;;;12.70;100.00;99568.22;5057363;28;20052;-68
2024/02/12 06:10:40;;;;;;;16.30;4.70;;;;;;;13.34;100.00;100084.53;5054948;28;20033;-70
2024/02/12 06:13:05;;;;;;;21.80;6.13;;;;;;;13.25;100.00;100250.00;5057177;28;20021;-70
2024/02/12 06:15:31;;;;;;;24.63;7.00;;;;;;;13.25;100.00;100469.59;5058037;28;20028;-72
2024/02/12 06:17:57;;;;;;;24.15;7.60;;;;;;;12.53;100.00;100519.31;5058315;28;20112;-70
2024/02/12 06:20:23;;;;;;;19.42;4.70;;;;;;;13.00;100.00;100697.47;5055770;28;20064;-69
2024/02/12 06:22:49;;;;;;;18.65;5.13;;;;;;;13.36;100.00;100894.06;5060842;28;20466;-70
2024/02/12 06:25:18;;;;;;;20.58;4.45;;;;;;;13.30;100.00;100938.47;5060209;28;20491;-70
2024/02/12 06:27:44;;;;;;;23.92;6.85;;;;;;;13.24;100.00;101231.44;5059403;28;20075;-70
2024/02/12 06:30:10;;;;;;;19.65;6.30;;;;;;;12.92;100.00;101426.84;5060487;28;20056;-71
2024/02/12 06:32:36;;;;;;;22.92;6.75;;;;;;;13.07;100.00;101807.13;5055392;28;20035;-69
2024/02/12 06:35:01;;;;;;;21.77;6.32;;;;;;;11.86;100.00;101836.75;5055076;28;20032;-71
2024/02/12 06:37:27;;;;;;;25.33;8.93;;;;;;;12.14;100.00;102256.56;5059555;28;20036;-70
2024/02/12 06:39:52;;;;;;;16.77;6.28;;;;;;;12.19;100.00;102584.72;5054497;28;20020;-70
2024/02/12 06:42:17;;;;;;;22.98;5.85;;;;;;;12.54;100.00;102942.25;5057035;28;20480;-70
2024/02/12 06:44:43;;;;;;;23.52;6.28;;;;;;;12.32;100.00;103121.41;5058628;28;20414;-71
2024/02/12 06:47:09;;;;;;;26.88;8.55;;;;;;;12.53;100.00;103021.34;5059721;28;20542;-70
2024/02/12 06:49:35;;;;;;;23.17;8.05;;;;;;;12.56;100.00;103355.75;5060143;28;20024;-70
2024/02/12 06:52:00;;;;;;;22.30;7.28;;;;;;;12.60;100.00;103840.91;5056041;28;20067;-70
2024/02/12 06:54:25;;;;;;;24.63;10.65;;;;;;;12.53;100.00;104611.78;5057323;28;20040;-69
2024/02/12 06:56:51;;;;;;;26.45;6.93;;;;;;;12.05;100.00;104917.78;5055255;28;20028;-71
2024/02/12 06:59:16;;;;;;;23.25;6.55;;;;;;;12.49;100.00;105231.31;5058158;28;20041;-71
2024/02/12 07:01:42;;;;;;;25.05;6.82;;;;;;;12.61;100.00;105573.28;5054588;28;20029;-70
2024/02/12 07:04:08;;;;;;;18.33;5.97;;;;;;;12.52;100.00;106152.66;5059224;28;20503;-69
2024/02/12 07:06:34;;;;;;;25.85;7.65;;;;;;;12.64;100.00;106712.97;5053309;28;20411;-69
2024/02/12 07:08:59;;;;;;;20.90;6.95;;;;;;;12.05;100.00;107105.25;5055571;28;20110;-71
2024/02/12 07:11:27;;;;;;;28.30;7.38;;;;;;;12.59;100.00;107884.81;5056857;28;20696;-70
2024/02/12 07:13:52;;;;;;;22.73;8.88;;;;;;;12.31;100.00;108479.31;5056186;28;20066;-69
2024/02/12 07:16:19;;;;;;;18.10;6.50;;;;;;;12.03;100.00;109293.03;5055712;28;20119;-69
2024/02/12 07:18:48;;;;;;;17.50;5.55;;;;;;;12.53;100.00;110198.06;5056384;28;20025;-70
2024/02/12 07:21:14;;;;;;;14.32;4.07;;;;;;;11.97;100.00;110838.16;5060063;28;20041;-70
2024/02/12 07:23:40;;;;;;;12.88;3.72;;;;;;;12.06;100.00;111354.91;5056983;28;20036;-70
2024/02/12 07:26:07;;;;;;;12.75;4.03;;;;;;;12.39;100.00;112049.63;5058917;28;20582;-70
2024/02/12 07:28:33;;;;;;;10.30;3.67;;;;;;;11.76;100.00;112362.28;5059840;28;20505;-70
2024/02/12 07:30:58;;;;;;;13.10;3.42;;;;;;;11.89;100.00;112727.59;5062731;28;20032;-69
2024/02/12 07:33:24;;;;;;;13.07;3.50;;;;;;;12.42;100.00;113214.41;5063088;28;20157;-70
2024/02/12 07:35:49;;;;;;;10.93;3.38;;;;;;;11.99;100.00;113521.31;5061229;28;20478;-69
2024/02/12 07:38:14;;;;;;;11.88;4.68;;;;;;;12.09;100.00;113885.63;5063208;28;20024;-70
2024/02/12 07:40:40;;;;;;;8.32;2.95;;;;;;;12.30;100.00;114287.06;5070075;28;20059;-70
2024/02/12 07:43:06;;;;;;;12.18;3.38;;;;;;;12.36;100.00;114578.47;5061842;28;21720;-69
2024/02/12 07:45:34;;;;;;;6.20;2.58;;;;;;;12.53;100.00;114997.69;5060342;28;20115;-70
2024/02/12 07:48:00;;;;;;;10.00;3.25;;;;;;;12.65;100.00;115242.59;5060913;28;20110;-69
2024/02/12 07:50:25;;;;;;;7.35;1.90;;;;;;;12.54;100.00;115575.88;5060427;28;20103;-69
2024/02/12 07:52:51;;;;;;;8.48;2.70;;;;;;;12.40;100.00;115769.13;5064254;28;20027;-70
2024/02/12 07:55:19;;;;;;;6.60;2.40;;;;;;;12.12;100.00;115858.44;5061056;28;20086;-70
2024/02/12 07:57:48;;;;;;;9.10;2.70;;;;;;;12.25;100.00;116039.75;5064799;28;20518;-71
2024/02/12 08:00:14;;;;;;;6.65;2.05;;;;;;;12.20;100.00;116322.94;5060122;28;20079;-70
2024/02/12 08:02:43;;;;;;;8.88;3.00;;;;;;;11.59;100.00;116525.91;5064272;28;20076;-70
2024/02/12 08:05:14;;;;;;;6.53;2.55;;;;;;;12.20;100.00;116988.75;5062951;28;20525;-70
2024/02/12 08:07:40;;;;;;;5.60;2.30;;;;;;;11.64;100.00;117397.91;5056298;28;20487;-70
2024/02/12 08:10:07;;;;;;;4.22;2.13;;;;;;;12.45;100.00;117818.19;5059600;28;20040;-70
2024/02/12 08:12:33;;;;;;;5.88;2.22;;;;;;;12.61;100.00;118026.53;5056838;28;20082;-70
2024/02/12 08:14:59;;;;;;;4.75;1.98;;;;;;;12.22;100.00;118049.66;5057521;28;20036;-70
2024/02/12 08:17:25;;;;;;;6.85;2.05;;;;;;;12.69;100.00;118416.63;5055840;28;20032;-70
2024/02/12 08:19:54;;;;;;;6.43;2.53;;;;;;;12.68;100.00;118588.00;5057583;28;20033;-70
2024/02/12 08:22:21;;;;;;;3.75;1.55;;;;;;;12.79;100.00;118658.53;5057108;28;20032;-69
2024/02/12 08:24:47;;;;;;;6.20;1.65;;;;;;;12.59;100.00;118589.16;5056817;28;20033;-68
2024/02/12 08:27:13;;;;;;;5.95;1.92;;;;;;;12.84;100.00;118636.06;5058277;28;20043;-70
2024/02/12 08:29:38;;;;;;;4.38;1.02;;;;;;;12.86;100.00;118629.75;5056667;28;20120;-71
2024/02/12 08:32:04;;;;;;;5.40;1.08;;;;;;;12.68;100.00;118453.09;5058810;28;20021;-70
2024/02/12 08:34:30;;;;;;;2.17;0.60;;;;;;;11.94;100.00;118062.00;5058569;28;20401;-70
2024/02/12 08:36:56;;;;;;;2.00;0.98;;;;;;;12.31;100.00;117930.56;5055779;28;20044;-70
2024/02/12 08:39:22;;;;;;;1.58;0.70;;;;;;;12.30;100.00;117677.53;5058368;28;20037;-70
2024/02/12 08:41:48;;;;;;;4.22;0.90;;;;;;;12.09;100.00;117336.06;5064505;28;20032;-71
2024/02/12 08:44:14;;;;;;;2.70;0.95;;;;;;;11.99;100.00;117024.59;5060227;28;20033;-71
2024/02/12 08:46:39;;;;;;;1.73;0.70;;;;;;;12.36;100.00;116849.94;5057158;28;20418;-75
2024/02/12 08:49:05;;;;;;;3.75;0.98;;;;;;;12.33;100.00;116551.13;5059236;28;20032;-70
2024/02/12 08:51:31;;;;;;;2.80;1.10;;;;;;;12.03;100.00;116207.06;5056427;28;20047;-70
2024/02/12 08:53:57;;;;;;;3.88;2.38;;;;;;;11.81;100.00;115857.34;5061671;28;20032;-70
2024/02/12 08:56:22;;;;;;;6.55;2.17;;;;;;;12.50;100.00;115627.06;5058826;28;20028;-70
2024/02/12 08:58:48;;;;;;;2.50;1.25;;;;;;;12.32;100.00;115166.38;5061989;28;20041;-69
2024/02/12 09:01:16;;;;;;;5.18;2.55;;;;;;;12.91;100.00;114814.28;5063101;28;20032;-70
2024/02/12 09:03:43;;;;;;;7.72;3.33;;;;;;;13.07;100.00;114321.16;5060579;28;20478;-70
2024/02/12 09:06:12;;;;;;;8.93;3.95;;;;;;;12.90;100.00;113668.75;5059477;28;20028;-69
2024/02/12 09:08:45;;;;;;;5.20;1.90;;;;;;;12.97;100.00;112960.56;5059312;28;20032;-70
2024/02/12 09:11:11;;;;;;;5.13;0.75;;;;;;;12.76;100.00;112239.06;5060265;28;20036;-70
2024/02/12 09:13:42;;;;;;;3.25;1.33;;;;;;;13.17;100.00;111644.72;5061339;28;20519;-70
2024/02/12 09:16:08;;;;;;;3.53;1.55;;;;;;;13.07;100.00;110957.81;5053950;28;20032;-71
2024/02/12 09:18:37;;;;;;;3.05;0.88;;;;;;;13.45;100.00;110368.78;5057401;28;20442;-70
2024/02/12 09:21:02;;;;;;;5.45;1.60;;;;;;;12.52;100.00;109572.28;5056917;28;20039;-70
2024/02/12 09:23:28;;;;;;;2.05;1.20;;;;;;;13.43;100.00;109476.41;5055958;28;20128;-70
2024/02/12 09:25:54;;;;;;;6.35;1.65;;;;;;;13.04;100.00;109069.34;5055677;28;20041;-72
2024/02/12 09:28:20;;;;;;;5.00;1.67;;;;;;;12.46;100.00;108635.88;5059739;28;20051;-70
2024/02/12 09:30:47;;;;;;;7.30;2.03;;;;;;;12.98;100.00;108548.38;5061474;28;20078;-72
2024/02/12 09:33:14;;;;;;;6.57;3.10;;;;;;;12.70;100.00;108173.94;5060002;28;20800;-71
2024/02/12 09:35:40;;;;;;;2.03;1.05;;;;;;;13.12;100.00;107980.13;5051272;28;20664;-70
2024/02/12 09:38:06;;;;;;;2.60;1.33;;;;;;;13.15;100.00;107749.25;5056414;28;20040;-70
2024/02/12 09:40:33;;;;;;;2.95;1.20;;;;;;;13.32;100.00;107545.22;5064001;28;20045;-69
2024/02/12 09:42:59;;;;;;;3.35;1.00;;;;;;;13.24;100.00;107308.31;5060007;28;20101;-70
2024/02/12 09:45:31;;;;;;;2.03;1.10;;;;;;;13.09;100.00;107082.03;5055463;28;20032;-71
2024/02/12 09:48:00;;;;;;;;;;;;;;;13.37;100.00;106923.81;5057453;28;20052;-71
2024/02/12 09:50:29;;;;;;;5.53;2.10;;;;;;;13.34;100.00;106608.88;5060662;28;19916;-71
2024/02/12 09:52:56;;;;;;;3.13;1.70;;;;;;;13.78;100.00;106492.44;5052912;28;20021;-72
2024/02/12 09:55:23;;;;;;;5.30;3.63;;;;;;;13.78;100.00;106191.25;5058051;28;20040;-69
2024/02/12 09:57:49;;;;;;;11.77;5.32;;;;;;;13.68;100.00;105835.75;5053765;28;20470;-71
2024/02/12 10:00:15;;;;;;;5.82;2.95;;;;;;;13.98;100.00;105629.09;5056433;28;20032;-70
2024/02/12 10:02:41;;;;;;;15.95;5.65;;;;;;;13.37;100.00;105156.25;5059733;28;20383;-72
2024/02/12 10:05:10;;;;;;;18.10;6.63;;;;;;;13.92;100.00;104853.22;5058496;28;20033;-70
2024/02/12 10:07:39;;;;;;;17.27;8.73;;;;;;;13.04;100.00;104345.44;5054359;28;20017;-70
2024/02/12 10:10:08;;;;;;;4.80;1.30;;;;;;;14.03;100.00;104153.13;5058693;28;20029;-69
2024/02/12 10:12:37;;;;;;;3.33;0.80;;;;;;;14.22;100.00;103953.03;5055689;28;20048;-69
2024/02/12 10:15:04;;;;;;;8.32;3.60;;;;;;;14.03;100.00;103499.66;5056888;28;20045;-70
2024/02/12 10:17:29;;;;;;;9.43;3.47;;;;;;;14.18;100.00;103034.09;5065494;28;20033;-73
2024/02/12 10:19:55;;;;;;;5.05;0.98;;;;;;;14.48;100.00;102451.41;4717913;28;10000582;-72
2024/02/12 10:22:23;;;;;;;1.95;0.70;;;;;;;14.38;100.00;101890.97;5050327;28;20036;-69
2024/02/12 10:24:49;;;;;;;4.85;1.20;;;;;;;14.60;100.00;101114.19;5058982;28;20103;-71
2024/02/12 10:27:15;;;;;;;5.97;1.48;;;;;;;14.61;100.00;99420.13;5058111;28;20116;-71
2024/02/12 10:29:41;;;;;;;7.55;2.38;;;;;;;14.53;100.00;99022.41;5053822;28;20029;-71
2024/02/12 10:32:08;;;;;;;3.88;1.25;;;;;;;14.01;100.00;98848.28;5054761;28;20036;-70
2024/02/12 10:34:39;;;;;;;3.83;1.70;;;;;;;14.57;100.00;98866.13;5058917;28;20032;-70
2024/02/12 10:37:06;;;;;;;5.20;1.05;;;;;;;14.59;100.00;98853.22;5054864;28;20066;-71
2024/02/12 10:39:31;;;;;;;7.30;1.10;;;;;;;14.43;100.00;98719.56;5057870;28;20201;-71
2024/02/12 10:42:03;;;;;;;5.75;0.90;;;;;;;14.93;100.00;98721.41;5054248;28;20553;-72
2024/02/12 10:44:31;;;;;;;7.03;0.98;;;;;;;14.64;100.00;98656.78;5053904;28;20570;-71
2024/02/12 10:46:57;;;;;;;5.10;1.23;;;;;;;14.32;100.00;98564.28;5056571;28;20041;-72
2024/02/12 10:49:26;;;;;;;3.83;0.70;;;;;;;14.22;100.00;98611.00;5057169;28;20039;-70
2024/02/12 10:51:54;;;;;;;3.20;1.20;;;;;;;14.04;100.00;98607.06;5053692;28;20035;-72
2024/02/12 10:54:22;;;;;;;4.35;1.83;;;;;;;14.30;100.00;98594.25;5054805;28;20032;-70
2024/02/12 10:56:49;;;;;;;6.72;1.00;;;;;;;14.44;100.00;98618.94;5053881;28;20028;-70
2024/02/12 10:59:16;;;;;;;2.97;0.60;;;;;;;14.55;100.00;98632.66;5051988;28;20131;-69
2024/02/12 11:01:43;;;;;;;2.92;0.80;;;;;;;14.64;100.00;98685.75;5059102;28;20634;-72
2024/02/12 11:04:16;;;;;;;4.55;0.93;;;;;;;14.56;100.00;98644.50;5068123;28;20031;-70
2024/02/12 11:06:42;;;;;;;6.82;0.75;;;;;;;14.91;100.00;98669.50;5057461;28;20106;-71
2024/02/12 11:09:10;;;;;;;2.38;0.70;;;;;;;14.78;100.00;98736.00;5062166;28;20056;-71
2024/02/12 11:11:46;;;;;;;4.97;0.82;;;;;;;14.87;100.00;98691.09;5058817;28;20462;-70
2024/02/12 11:14:18;;;;;;;2.65;0.50;;;;;;;14.82;100.00;98647.06;5062051;28;20028;-70
2024/02/12 11:16:44;;;;;;;7.95;1.13;;;;;;;14.98;100.00;98686.09;5059157;28;20119;-70
2024/02/12 11:19:16;;;;;;;2.95;0.60;;;;;;;15.00;100.00;98633.88;5058348;28;20107;-69
2024/02/12 11:21:41;;;;;;;2.83;0.80;;;;;;;15.16;100.00;98647.28;5059861;28;20028;-70
2024/02/12 11:24:09;;;;;;;7.30;0.80;;;;;;;15.11;100.00;98679.25;5065438;28;20025;-70
2024/02/12 11:26:43;;;;;;;7.97;0.80;;;;;;;14.47;100.00;98618.72;5067875;28;20039;-70
2024/02/12 11:29:09;;;;;;;5.63;0.82;;;;;;;14.32;100.00;98638.44;5061350;28;20029;-71
2024/02/12 11:31:37;;;;;;;6.97;0.80;;;;;;;14.41;100.00;98626.81;5063395;28;20500;-70